createdAt,value
2018-01-23T00:01:52.706Z,12.93
2018-01-23T00:04:18.928Z,6.57
2018-01-23T00:06:45.832Z,13.53
2018-01-23T00:09:11.970Z,8.53
2018-01-23T00:11:38.203Z,12.03
2018-01-23T00:14:04.436Z,13.30
2018-01-23T00:16:31.470Z,10.23
2018-01-23T00:18:57.656Z,15.10
2018-01-23T00:21:24.098Z,6.20
2018-01-23T00:23:50.293Z,45.17
2018-01-23T00:26:16.554Z,39.13
2018-01-23T00:28:42.722Z,26.63
2018-01-23T00:31:09.675Z,38.60
2018-01-23T00:33:36.663Z,35.67
2018-01-23T00:36:02.894Z,42.80
2018-01-23T00:38:29.170Z,38.43
2018-01-23T00:40:56.316Z,26.00
2018-01-23T00:43:23.297Z,27.37
2018-01-23T00:45:49.574Z,31.63
2018-01-23T00:48:15.785Z,33.83
2018-01-23T00:50:42.070Z,27.47
2018-01-23T00:53:08.258Z,33.73
2018-01-23T00:55:35.406Z,28.03
2018-01-23T00:58:02.486Z,40.03
2018-01-23T01:00:28.687Z,24.57
2018-01-23T01:02:55.794Z,28.63
2018-01-23T01:05:22.021Z,30.90
2018-01-23T01:07:48.195Z,19.60
2018-01-23T01:10:15.070Z,10.17
2018-01-23T01:12:41.298Z,13.80
2018-01-23T01:15:07.712Z,10.60
2018-01-23T01:17:34.018Z,13.50
2018-01-23T01:20:01.032Z,16.80
2018-01-23T01:22:27.274Z,14.43
2018-01-23T01:24:53.519Z,7.47
2018-01-23T01:27:20.463Z,12.23
2018-01-23T01:29:47.349Z,9.97
2018-01-23T01:32:13.508Z,18.43
2018-01-23T01:34:40.348Z,18.90
2018-01-23T01:37:06.612Z,8.50
2018-01-23T01:39:32.804Z,6.37
2018-01-23T01:41:59.719Z,6.63
2018-01-23T01:44:25.970Z,6.60
2018-01-23T01:46:52.930Z,10.57
2018-01-23T01:49:19.908Z,8.37
2018-01-23T01:51:46.104Z,9.87
2018-01-23T01:54:13.101Z,9.40
2018-01-23T01:56:39.247Z,7.13
2018-01-23T01:59:06.241Z,7.17
2018-01-23T02:01:32.396Z,5.80
2018-01-23T02:03:58.641Z,8.63
2018-01-23T02:06:24.847Z,8.97
2018-01-23T02:08:51.044Z,12.57
2018-01-23T02:11:17.323Z,5.97
2018-01-23T02:13:43.553Z,4.73
2018-01-23T02:16:10.482Z,8.07
2018-01-23T02:18:36.634Z,8.60
2018-01-23T02:21:03.627Z,8.43
2018-01-23T02:23:29.849Z,7.10
2018-01-23T02:25:56.044Z,6.10
2018-01-23T02:28:22.987Z,15.53
2018-01-23T02:30:49.948Z,4.27
2018-01-23T02:33:16.308Z,6.27
2018-01-23T02:35:42.491Z,8.57
2018-01-23T02:38:09.467Z,10.20
2018-01-23T02:40:35.623Z,11.97
2018-01-23T02:43:01.895Z,5.23
2018-01-23T02:45:28.310Z,8.73
2018-01-23T02:47:55.239Z,11.43
2018-01-23T02:50:22.167Z,4.57
2018-01-23T02:52:48.317Z,8.17
2018-01-23T02:55:15.299Z,9.27
2018-01-23T02:57:41.450Z,6.90
2018-01-23T03:00:07.680Z,6.13
2018-01-23T03:02:33.959Z,9.20
2018-01-23T03:05:00.274Z,6.03
2018-01-23T03:07:27.234Z,9.10
2018-01-23T03:09:53.432Z,6.30
2018-01-23T03:12:19.685Z,7.03
2018-01-23T03:14:46.467Z,6.57
2018-01-23T03:17:12.726Z,7.60
2018-01-23T03:19:39.003Z,11.00
2018-01-23T03:22:05.111Z,7.63
2018-01-23T03:24:31.295Z,8.40
2018-01-23T03:26:58.326Z,8.67
2018-01-23T03:29:24.455Z,4.90
2018-01-23T03:31:50.767Z,7.00
2018-01-23T03:34:16.973Z,4.87
2018-01-23T03:36:43.298Z,5.47
2018-01-23T03:39:09.551Z,3.90
2018-01-23T03:41:35.709Z,8.70
2018-01-23T03:44:02.000Z,3.93
2018-01-23T03:46:28.215Z,3.83
2018-01-23T03:48:54.526Z,3.27
2018-01-23T03:51:20.789Z,3.70
2018-01-23T03:53:47.147Z,3.80
2018-01-23T03:56:13.360Z,3.30
2018-01-23T03:58:39.646Z,3.27
2018-01-23T04:01:05.859Z,3.57
2018-01-23T04:03:32.099Z,7.70
2018-01-23T04:05:58.578Z,4.03
2018-01-23T04:08:24.775Z,4.27
2018-01-23T04:10:50.949Z,4.53
2018-01-23T04:13:18.494Z,4.27
2018-01-23T04:15:45.627Z,3.10
2018-01-23T04:18:11.793Z,2.73
2018-01-23T04:20:38.714Z,27.37
2018-01-23T04:23:05.054Z,3.10
2018-01-23T04:25:32.069Z,5.10
2018-01-23T04:27:58.273Z,2.70
2018-01-23T04:30:24.616Z,5.63
2018-01-23T04:32:50.749Z,5.23
2018-01-23T04:35:17.112Z,4.90
2018-01-23T04:37:44.061Z,3.73
2018-01-23T04:40:11.088Z,3.17
2018-01-23T04:42:37.295Z,4.30
2018-01-23T04:45:03.422Z,3.20
2018-01-23T04:47:29.706Z,5.07
2018-01-23T04:49:55.965Z,4.60
2018-01-23T04:52:22.224Z,3.00
2018-01-23T04:54:48.479Z,8.03
2018-01-23T04:57:14.721Z,7.30
2018-01-23T04:59:41.659Z,2.63
2018-01-23T05:02:07.833Z,3.40
2018-01-23T05:04:34.167Z,3.13
2018-01-23T05:07:00.469Z,2.83
2018-01-23T05:09:26.684Z,2.67
2018-01-23T05:11:53.095Z,6.13
2018-01-23T05:14:19.719Z,2.70
2018-01-23T05:16:46.191Z,4.43
2018-01-23T05:19:12.516Z,3.03
2018-01-23T05:21:38.741Z,14.57
2018-01-23T05:24:05.089Z,8.80
2018-01-23T05:26:31.336Z,2.87
2018-01-23T05:28:57.592Z,3.17
2018-01-23T05:31:23.898Z,8.60
2018-01-23T05:33:50.392Z,5.67
2018-01-23T05:36:16.558Z,4.63
2018-01-23T05:38:43.561Z,4.47
2018-01-23T05:41:09.825Z,5.70
2018-01-23T05:43:37.615Z,4.93
2018-01-23T05:46:04.559Z,4.87
2018-01-23T05:48:30.767Z,6.60
2018-01-23T05:50:56.992Z,5.47
2018-01-23T05:53:23.223Z,8.90
2018-01-23T05:55:50.193Z,5.40
2018-01-23T05:58:17.126Z,4.83
2018-01-23T06:00:44.075Z,7.57
2018-01-23T06:03:10.373Z,6.17
2018-01-23T06:05:36.623Z,8.50
2018-01-23T06:08:03.528Z,6.93
2018-01-23T06:10:29.807Z,15.00
2018-01-23T06:12:56.082Z,12.83
2018-01-23T06:15:22.260Z,10.33
2018-01-23T06:17:48.466Z,6.67
2018-01-23T06:20:15.598Z,10.37
2018-01-23T06:22:41.833Z,12.00
2018-01-23T06:25:08.842Z,4.87
2018-01-23T06:27:35.166Z,8.03
2018-01-23T06:30:01.403Z,7.37
2018-01-23T06:32:27.737Z,9.83
2018-01-23T06:34:54.007Z,7.27
2018-01-23T06:37:20.256Z,9.40
2018-01-23T06:39:46.426Z,6.77
2018-01-23T06:42:14.300Z,12.27
2018-01-23T06:44:40.506Z,8.40
2018-01-23T06:47:06.803Z,8.07
2018-01-23T06:49:33.083Z,5.23
2018-01-23T06:51:59.276Z,9.43
2018-01-23T06:54:25.529Z,7.73
2018-01-23T06:56:53.196Z,5.00
2018-01-23T06:59:19.437Z,4.50
2018-01-23T07:01:46.588Z,7.67
2018-01-23T07:04:13.624Z,4.13
2018-01-23T07:06:39.916Z,4.73
2018-01-23T07:09:06.108Z,8.80
2018-01-23T07:11:32.275Z,5.20
2018-01-23T07:13:58.503Z,5.40
2018-01-23T07:16:24.700Z,4.47
2018-01-23T07:18:50.901Z,4.30
2018-01-23T07:21:17.196Z,3.50
2018-01-23T07:23:44.969Z,3.20
2018-01-23T07:26:12.078Z,2.50
2018-01-23T07:28:38.367Z,2.33
2018-01-23T07:31:05.387Z,4.73
2018-01-23T07:33:31.731Z,2.40
2018-01-23T07:35:58.680Z,2.83
2018-01-23T07:38:25.706Z,4.30
2018-01-23T07:40:52.664Z,3.37
2018-01-23T07:43:19.732Z,3.77
2018-01-23T07:45:45.931Z,2.57
2018-01-23T07:48:12.878Z,8.73
2018-01-23T07:50:39.824Z,2.83
2018-01-23T07:53:06.859Z,2.93
2018-01-23T07:55:33.875Z,3.40
2018-01-23T07:58:00.164Z,3.90
2018-01-23T08:00:26.509Z,2.87
2018-01-23T08:02:52.814Z,3.70
2018-01-23T08:05:19.032Z,9.10
2018-01-23T08:07:46.342Z,4.10
2018-01-23T08:10:12.562Z,2.53
2018-01-23T08:12:38.845Z,6.70
2018-01-23T08:15:05.054Z,3.07
2018-01-23T08:17:32.089Z,3.20
2018-01-23T08:19:58.296Z,3.33
2018-01-23T08:22:24.629Z,4.50
2018-01-23T08:24:50.790Z,3.80
2018-01-23T08:27:17.891Z,4.27
2018-01-23T08:29:44.107Z,6.33
2018-01-23T08:32:10.409Z,3.17
2018-01-23T08:34:36.851Z,4.30
2018-01-23T08:37:03.065Z,2.80
2018-01-23T08:39:29.355Z,2.97
2018-01-23T08:41:55.617Z,5.70
2018-01-23T08:44:21.904Z,4.00
2018-01-23T08:46:48.212Z,6.13
2018-01-23T08:49:14.463Z,3.80
2018-01-23T08:51:40.633Z,5.33
2018-01-23T08:54:06.860Z,6.33
2018-01-23T08:56:33.223Z,4.47
2018-01-23T08:58:59.454Z,4.90
2018-01-23T09:01:25.706Z,10.63
2018-01-23T09:03:51.893Z,5.13
2018-01-23T09:06:18.111Z,10.37
2018-01-23T09:08:44.351Z,6.93
2018-01-23T09:11:10.607Z,6.30
2018-01-23T09:13:36.870Z,3.67
2018-01-23T09:16:03.992Z,3.70
2018-01-23T09:18:30.280Z,9.53
2018-01-23T09:20:56.682Z,3.87
2018-01-23T09:23:23.122Z,8.23
2018-01-23T09:25:49.285Z,6.47
2018-01-23T09:28:15.500Z,4.37
2018-01-23T09:30:41.780Z,7.40
2018-01-23T09:33:07.998Z,3.57
2018-01-23T09:35:35.031Z,7.43
2018-01-23T09:38:08.376Z,7.77
2018-01-23T09:40:34.792Z,4.13
2018-01-23T09:43:01.053Z,5.60
2018-01-23T09:45:27.306Z,6.90
2018-01-23T09:47:53.505Z,9.27
2018-01-23T09:50:19.724Z,10.90
2018-01-23T09:52:46.061Z,9.83
2018-01-23T09:55:12.377Z,5.80
2018-01-23T09:57:38.650Z,5.40
2018-01-23T10:00:04.882Z,6.07
2018-01-23T10:02:31.886Z,8.10
2018-01-23T10:04:58.233Z,8.40
2018-01-23T10:07:24.654Z,6.20
2018-01-23T10:09:50.903Z,9.83
2018-01-23T10:12:17.928Z,5.47
2018-01-23T10:14:44.142Z,12.23
2018-01-23T10:17:11.169Z,8.83
2018-01-23T10:19:37.586Z,11.70
2018-01-23T10:22:03.940Z,6.90
2018-01-23T10:24:30.174Z,10.77
2018-01-23T10:26:56.324Z,8.80
2018-01-23T10:29:22.663Z,6.70
2018-01-23T10:31:50.287Z,9.70
2018-01-23T10:34:16.564Z,7.63
2018-01-23T10:36:43.503Z,6.20
2018-01-23T10:39:09.848Z,17.37
2018-01-23T10:41:36.836Z,9.13
2018-01-23T10:44:03.112Z,7.10
2018-01-23T10:46:30.010Z,7.93
2018-01-23T10:48:56.306Z,5.13
2018-01-23T10:51:22.549Z,5.73
2018-01-23T10:53:48.870Z,5.33
2018-01-23T10:56:15.161Z,5.40
2018-01-23T10:58:42.233Z,8.53
2018-01-23T11:01:08.423Z,3.53
2018-01-23T11:03:34.929Z,7.20
2018-01-23T11:06:01.109Z,4.60
2018-01-23T11:08:28.178Z,5.13
2018-01-23T11:10:54.329Z,2.80
2018-01-23T11:13:20.602Z,3.60
2018-01-23T11:15:47.548Z,3.80
2018-01-23T11:18:14.679Z,7.90
2018-01-23T11:20:41.885Z,7.47
2018-01-23T11:23:08.202Z,6.33
2018-01-23T11:25:34.797Z,4.77
2018-01-23T11:28:01.881Z,4.00
2018-01-23T11:30:28.205Z,3.80
2018-01-23T11:32:54.673Z,7.67
2018-01-23T11:35:20.931Z,3.90
2018-01-23T11:37:48.064Z,4.77
2018-01-23T11:40:14.328Z,8.10
2018-01-23T11:42:40.551Z,8.70
2018-01-23T11:45:07.593Z,4.30
2018-01-23T11:47:34.640Z,8.53
2018-01-23T11:50:01.120Z,6.73
2018-01-23T11:52:27.523Z,7.07
2018-01-23T11:54:53.930Z,4.10
2018-01-23T11:57:20.331Z,4.80
2018-01-23T11:59:46.523Z,10.37
2018-01-23T12:02:12.884Z,5.00
2018-01-23T12:04:39.069Z,7.83
2018-01-23T12:07:05.424Z,7.27
2018-01-23T12:09:31.699Z,8.23
2018-01-23T12:11:58.685Z,4.17
2018-01-23T12:14:25.115Z,6.23
2018-01-23T12:16:51.374Z,5.27
2018-01-23T12:19:17.623Z,3.90
2018-01-23T12:21:43.928Z,4.97
2018-01-23T12:24:11.806Z,5.07
2018-01-23T12:26:38.169Z,5.00
2018-01-23T12:29:04.474Z,6.80
2018-01-23T12:31:31.536Z,5.23
2018-01-23T12:33:57.902Z,5.23
2018-01-23T12:36:24.358Z,8.17
2018-01-23T12:38:52.274Z,16.27
2018-01-23T12:41:18.741Z,32.70
2018-01-23T12:43:45.157Z,23.40
2018-01-23T12:46:11.507Z,33.33
2018-01-23T12:48:37.836Z,21.57
2018-01-23T12:51:04.122Z,25.40
2018-01-23T12:53:30.721Z,9.93
2018-01-23T12:55:58.403Z,3.40
2018-01-23T12:58:25.571Z,3.57
2018-01-23T13:00:52.618Z,3.50
2018-01-23T13:03:19.218Z,12.37
2018-01-23T13:05:46.169Z,7.73
2018-01-23T13:08:13.233Z,9.43
2018-01-23T13:10:39.571Z,8.27
2018-01-23T13:13:06.093Z,7.03
2018-01-23T13:15:33.218Z,9.77
2018-01-23T13:18:00.210Z,7.23
2018-01-23T13:20:26.818Z,11.60
2018-01-23T13:22:53.784Z,5.37
2018-01-23T13:25:20.209Z,6.33
2018-01-23T13:27:46.663Z,3.70
2018-01-23T13:30:12.943Z,3.80
2018-01-23T13:32:41.299Z,5.80
2018-01-23T13:35:09.200Z,7.87
2018-01-23T13:37:36.689Z,8.03
2018-01-23T13:40:03.139Z,14.90
2018-01-23T13:42:29.479Z,13.20
2018-01-23T13:44:57.193Z,5.30
2018-01-23T13:47:23.500Z,11.07
2018-01-23T13:49:50.415Z,5.50
2018-01-23T13:52:16.685Z,7.60
2018-01-23T13:54:42.963Z,3.57
2018-01-23T13:57:10.036Z,7.17
2018-01-23T13:59:38.109Z,2.93
2018-01-23T14:02:05.249Z,7.80
2018-01-23T14:04:31.644Z,5.83
2018-01-23T14:07:04.915Z,3.87
2018-01-23T14:09:31.234Z,6.73
2018-01-23T14:11:57.534Z,4.20
2018-01-23T14:14:24.782Z,5.83
2018-01-23T14:16:51.204Z,7.30
2018-01-23T14:19:17.509Z,4.90
2018-01-23T14:21:44.031Z,8.03
2018-01-23T14:24:10.249Z,3.00
2018-01-23T14:26:36.678Z,9.30
2018-01-23T14:29:03.038Z,5.57
2018-01-23T14:31:29.352Z,5.47
2018-01-23T14:33:55.937Z,5.53
2018-01-23T14:36:22.193Z,5.50
2018-01-23T14:38:48.455Z,3.97
2018-01-23T14:41:14.681Z,11.00
2018-01-23T14:43:41.013Z,3.50
2018-01-23T14:46:08.150Z,4.23
2018-01-23T14:48:34.919Z,9.50
2018-01-23T14:51:01.952Z,8.37
2018-01-23T14:53:28.231Z,10.00
2018-01-23T14:55:54.370Z,5.37
2018-01-23T14:58:21.712Z,5.10
2018-01-23T15:00:48.109Z,6.10
2018-01-23T15:03:14.441Z,12.20
2018-01-23T15:05:41.616Z,6.63
2018-01-23T15:08:07.956Z,6.33
2018-01-23T15:10:34.198Z,5.30
2018-01-23T15:13:00.522Z,5.60
2018-01-23T15:15:26.749Z,4.20
2018-01-23T15:17:53.087Z,6.73
2018-01-23T15:20:19.527Z,8.23
2018-01-23T15:22:45.734Z,8.00
2018-01-23T15:25:12.214Z,6.90
2018-01-23T15:27:38.379Z,5.40
2018-01-23T15:30:04.647Z,2.13
2018-01-23T15:32:30.864Z,5.80
2018-01-23T15:34:57.122Z,4.83
2018-01-23T15:37:23.346Z,12.23
2018-01-23T15:39:49.654Z,4.37
2018-01-23T15:42:16.096Z,9.60
2018-01-23T15:44:42.259Z,4.33
2018-01-23T15:47:09.120Z,7.53
2018-01-23T15:49:35.468Z,6.20
2018-01-23T15:52:01.633Z,6.27
2018-01-23T15:54:27.971Z,9.13
2018-01-23T15:56:54.956Z,4.83
2018-01-23T15:59:21.266Z,6.07
2018-01-23T16:01:48.645Z,4.40
2018-01-23T16:04:15.007Z,10.70
2018-01-23T16:06:42.356Z,13.00
2018-01-23T16:09:08.675Z,5.90
2018-01-23T16:11:34.979Z,6.80
2018-01-23T16:14:01.159Z,5.70
2018-01-23T16:16:28.144Z,6.80
2018-01-23T16:18:54.371Z,33.27
2018-01-23T16:21:20.946Z,28.87
2018-01-23T16:23:48.188Z,59.83
2018-01-23T16:26:14.618Z,13.70
2018-01-23T16:28:40.817Z,5.57
2018-01-23T16:31:07.077Z,9.13
2018-01-23T16:33:33.462Z,4.17
2018-01-23T16:35:59.772Z,2.53
2018-01-23T16:38:26.921Z,15.37
2018-01-23T16:40:53.980Z,10.80
2018-01-23T16:43:20.297Z,3.90
2018-01-23T16:45:47.418Z,6.63
2018-01-23T16:48:13.826Z,7.50
2018-01-23T16:50:40.074Z,6.70
2018-01-23T16:53:06.314Z,3.87
2018-01-23T16:55:32.570Z,2.63
2018-01-23T16:57:58.943Z,4.27
2018-01-23T17:00:25.238Z,5.80
2018-01-23T17:02:51.756Z,5.93
2018-01-23T17:05:18.000Z,6.23
2018-01-23T17:07:44.245Z,9.73
2018-01-23T17:10:10.584Z,5.00
2018-01-23T17:12:36.827Z,5.67
2018-01-23T17:15:03.136Z,7.00
2018-01-23T17:17:29.506Z,6.70
2018-01-23T17:19:56.507Z,3.63
2018-01-23T17:22:22.760Z,10.87
2018-01-23T17:24:48.960Z,3.27
2018-01-23T17:27:15.300Z,9.70
2018-01-23T17:29:41.738Z,4.60
2018-01-23T17:32:08.175Z,4.70
2018-01-23T17:34:34.482Z,5.10
2018-01-23T17:37:00.928Z,11.40
2018-01-23T17:39:27.480Z,8.13
2018-01-23T17:41:53.754Z,8.17
2018-01-23T17:44:20.049Z,5.27
2018-01-23T17:46:47.086Z,10.37
2018-01-23T17:49:13.452Z,11.13
2018-01-23T17:51:39.872Z,11.00
2018-01-23T17:54:06.992Z,4.80
2018-01-23T17:56:33.445Z,8.10
2018-01-23T17:59:00.194Z,5.07
2018-01-23T18:01:26.731Z,12.37
2018-01-23T18:03:53.284Z,7.83
2018-01-23T18:06:19.712Z,6.47
2018-01-23T18:08:46.803Z,9.90
2018-01-23T18:11:13.393Z,8.93
2018-01-23T18:13:39.901Z,15.57
2018-01-23T18:19:00.392Z,10.47
2018-01-23T18:21:26.832Z,9.03
2018-01-23T18:23:54.146Z,9.13
2018-01-23T18:26:20.360Z,7.27
2018-01-23T18:28:46.559Z,5.13
2018-01-23T18:31:12.882Z,9.57
2018-01-23T18:33:39.320Z,8.50
2018-01-23T18:36:05.645Z,9.50
2018-01-23T18:38:32.018Z,8.57
2018-01-23T18:40:58.498Z,4.83
2018-01-23T18:43:24.677Z,7.03
2018-01-23T18:45:50.879Z,3.50
2018-01-23T18:48:17.456Z,8.87
2018-01-23T18:50:43.939Z,8.13
2018-01-23T18:53:10.244Z,7.23
2018-01-23T18:55:37.385Z,5.13
2018-01-23T18:58:04.838Z,2.67
2018-01-23T19:00:31.771Z,8.43
2018-01-23T19:02:57.963Z,9.93
2018-01-23T19:05:24.194Z,15.00
2018-01-23T19:07:50.866Z,5.47
2018-01-23T19:10:17.264Z,9.23
2018-01-23T19:12:43.539Z,9.43
2018-01-23T19:15:10.612Z,8.87
2018-01-23T19:17:36.914Z,10.00
2018-01-23T19:20:04.028Z,10.00
2018-01-23T19:22:30.400Z,5.53
2018-01-23T19:24:57.707Z,7.10
2018-01-23T19:27:23.869Z,8.70
2018-01-23T19:29:51.090Z,9.60
2018-01-23T19:32:17.755Z,5.30
2018-01-23T19:34:44.621Z,9.83
2018-01-23T19:37:11.109Z,9.00
2018-01-23T19:39:37.457Z,11.83
2018-01-23T19:42:04.390Z,8.40
2018-01-23T19:44:31.508Z,11.03
2018-01-23T19:46:57.762Z,6.60
2018-01-23T19:49:25.064Z,4.50
2018-01-23T19:51:51.503Z,2.20
2018-01-23T19:54:17.889Z,3.07
2018-01-23T19:56:44.830Z,5.67
2018-01-23T19:59:11.826Z,5.23
2018-01-23T20:01:38.268Z,3.60
2018-01-23T20:04:04.568Z,4.40
2018-01-23T20:06:30.824Z,4.93
2018-01-23T20:08:57.104Z,9.13
2018-01-23T20:11:24.304Z,6.67
2018-01-23T20:13:50.759Z,7.60
2018-01-23T20:16:16.971Z,17.87
2018-01-23T20:18:43.958Z,8.17
2018-01-23T20:21:10.215Z,11.03
2018-01-23T20:23:36.522Z,8.63
2018-01-23T20:26:02.699Z,11.83
2018-01-23T20:28:29.011Z,3.23
2018-01-23T20:30:55.486Z,5.00
2018-01-23T20:33:22.489Z,8.77
2018-01-23T20:35:48.947Z,14.00
2018-01-23T20:38:15.275Z,9.07
2018-01-23T20:40:42.346Z,11.53
2018-01-23T20:43:09.607Z,10.30
2018-01-23T20:45:35.995Z,5.27
2018-01-23T20:48:02.487Z,11.90
2018-01-23T20:50:28.798Z,6.03
2018-01-23T20:52:55.071Z,2.03
2018-01-23T20:55:21.337Z,2.33
2018-01-23T20:57:48.304Z,2.30
2018-01-23T21:00:14.509Z,5.43
2018-01-23T21:02:41.548Z,6.07
2018-01-23T21:05:08.527Z,5.33
2018-01-23T21:07:34.963Z,4.63
2018-01-23T21:10:01.167Z,10.50
2018-01-23T21:12:28.194Z,5.73
2018-01-23T21:14:54.505Z,8.10
2018-01-23T21:17:21.167Z,7.10
2018-01-23T21:19:48.101Z,10.50
2018-01-23T21:22:15.183Z,6.40
2018-01-23T21:24:41.471Z,8.50
2018-01-23T21:27:07.783Z,6.70
2018-01-23T21:29:34.900Z,8.97
2018-01-23T21:32:01.325Z,7.40
2018-01-23T21:34:27.482Z,12.57
2018-01-23T21:36:53.687Z,7.20
2018-01-23T21:39:19.957Z,5.40
2018-01-23T21:41:47.761Z,13.43
2018-01-23T21:44:14.278Z,6.40
2018-01-23T21:46:41.307Z,7.27
2018-01-23T21:49:07.683Z,8.33
2018-01-23T21:51:34.236Z,7.40
2018-01-23T21:54:00.497Z,6.00
2018-01-23T21:56:26.744Z,11.40
2018-01-23T21:58:52.927Z,4.37
2018-01-23T22:01:19.129Z,9.97
2018-01-23T22:03:45.743Z,8.00
2018-01-23T22:06:12.004Z,3.93
2018-01-23T22:08:38.275Z,3.97
2018-01-23T22:11:05.285Z,7.53
2018-01-23T22:13:31.557Z,5.97
2018-01-23T22:15:58.656Z,3.43
2018-01-23T22:18:24.859Z,6.53
2018-01-23T22:20:51.287Z,5.60
2018-01-23T22:23:17.591Z,3.33
2018-01-23T22:25:44.460Z,6.30
2018-01-23T22:28:10.601Z,1.57
2018-01-23T22:30:37.187Z,2.90
2018-01-23T22:33:05.351Z,3.20
2018-01-23T22:35:33.498Z,5.77
2018-01-23T22:38:00.665Z,12.80
2018-01-23T22:40:26.869Z,6.63
2018-01-23T22:42:53.061Z,4.80
2018-01-23T22:45:19.184Z,4.43
2018-01-23T22:47:45.498Z,1.87
2018-01-23T22:50:11.910Z,3.50
2018-01-23T22:52:38.792Z,4.93
2018-01-23T22:55:05.040Z,3.90
2018-01-23T22:57:31.394Z,5.10
2018-01-23T22:59:57.757Z,1.47
2018-01-23T23:02:24.514Z,5.73
2018-01-23T23:04:50.991Z,2.97
2018-01-23T23:07:17.617Z,3.80
2018-01-23T23:09:45.536Z,3.50
2018-01-23T23:12:11.820Z,10.17
2018-01-23T23:14:40.618Z,5.30
2018-01-23T23:17:06.804Z,6.60
2018-01-23T23:19:32.953Z,14.67
2018-01-23T23:21:59.365Z,13.17
2018-01-23T23:24:25.582Z,13.73
2018-01-23T23:26:51.786Z,9.07
2018-01-23T23:29:17.996Z,3.03
2018-01-23T23:31:45.023Z,4.73
2018-01-23T23:34:11.374Z,7.40
2018-01-23T23:36:38.529Z,2.20
2018-01-23T23:39:05.462Z,7.10
2018-01-23T23:41:32.710Z,7.80
2018-01-23T23:43:59.674Z,10.30
2018-01-23T23:46:26.098Z,4.73
2018-01-23T23:48:53.017Z,7.43
2018-01-23T23:51:19.157Z,4.87
2018-01-23T23:53:46.297Z,4.90
2018-01-23T23:56:13.163Z,13.30
2018-01-23T23:58:39.441Z,8.60
